Center Cross, Virginia
Current Conditions -  °F | °C
As of 3:55 AM on Sunday 23 Nov 2014 (Local Time) from KXSA Reporting Station
Clear Clear  
Wind Chill: 35°   Ceiling: Unl
Heat Index: 35°   Visibility: 10mi
Dew Point: 15°   Wind: 0mph
Humidity: 44%   Direction: NA
Pressure: 30.27"   Gusts: NA
Location:  37.8°N, 76.78°W
Report Text: KXSA 230855Z AUTO 00000KT 10SM CLR 02/M09 A3027 RMK AO2 T00181092
Loading
Personal Weather Stations






























Interactive Weather Map New forecast layout! Learn more

10-Day Weather Forecast

Advertisements
Track Severe Weather on mobile